createdAt,value
2022-11-03T00:03:01.328Z,66.61
2022-11-03T00:06:07.618Z,67.02
2022-11-03T00:09:16.389Z,67.35
2022-11-03T00:12:21.933Z,67.69
2022-11-03T00:15:30.150Z,67.72
2022-11-03T00:18:35.800Z,67.64
2022-11-03T00:21:42.010Z,67.91
2022-11-03T00:24:47.555Z,68.07
2022-11-03T00:27:59.042Z,68.56
2022-11-03T00:31:12.453Z,68.36
2022-11-03T00:34:18.039Z,68.30
2022-11-03T00:37:23.606Z,68.68
2022-11-03T00:40:29.150Z,68.51
2022-11-03T00:43:38.119Z,68.38
2022-11-03T00:46:46.262Z,68.05
2022-11-03T00:49:51.898Z,68.41
2022-11-03T00:52:57.514Z,68.43
2022-11-03T00:56:04.123Z,68.45
2022-11-03T00:59:13.061Z,68.64
2022-11-03T01:02:21.378Z,69.08
2022-11-03T01:05:39.178Z,69.29
2022-11-03T01:08:44.834Z,69.20
2022-11-03T01:12:01.068Z,69.79
2022-11-03T01:15:07.415Z,70.30
2022-11-03T01:18:15.926Z,70.62
2022-11-03T01:21:22.293Z,71.27
2022-11-03T01:24:27.945Z,71.74
2022-11-03T01:27:33.495Z,71.82
2022-11-03T01:30:39.051Z,71.64
2022-11-03T01:33:48.683Z,71.79
2022-11-03T01:36:54.313Z,72.50
2022-11-03T01:39:59.828Z,72.14
2022-11-03T01:43:21.171Z,72.39
2022-11-03T01:46:31.893Z,72.21
2022-11-03T01:49:49.828Z,72.53
2022-11-03T01:53:02.421Z,72.29
2022-11-03T01:56:09.499Z,72.43
2022-11-03T01:59:16.305Z,71.98
2022-11-03T02:02:22.162Z,71.81
2022-11-03T02:05:33.463Z,72.04
2022-11-03T02:08:47.033Z,72.09
2022-11-03T02:12:05.240Z,72.16
2022-11-03T02:15:16.846Z,72.04
2022-11-03T02:18:27.868Z,71.54
2022-11-03T02:21:51.516Z,71.93
2022-11-03T02:25:14.480Z,71.73
2022-11-03T02:28:27.683Z,71.88
2022-11-03T02:31:44.994Z,71.71
2022-11-03T02:35:03.386Z,71.71
2022-11-03T02:38:18.497Z,71.75
2022-11-03T02:41:28.854Z,71.32
2022-11-03T02:44:41.231Z,71.25
2022-11-03T02:47:49.737Z,71.32
2022-11-03T02:50:57.307Z,71.87
2022-11-03T02:54:15.602Z,72.75
2022-11-03T02:57:33.435Z,72.96
2022-11-03T03:00:52.042Z,72.92
2022-11-03T03:04:04.388Z,73.70
2022-11-03T03:07:18.800Z,75.52
2022-11-03T03:10:32.960Z,76.29
2022-11-03T03:13:38.737Z,75.78
2022-11-03T03:17:01.909Z,75.74
2022-11-03T03:20:18.792Z,76.58
2022-11-03T03:23:29.858Z,77.06
2022-11-03T03:26:45.685Z,77.12
2022-11-03T03:30:00.896Z,78.08
2022-11-03T03:33:12.808Z,78.04
2022-11-03T03:36:25.010Z,78.33
2022-11-03T03:39:39.200Z,78.12
2022-11-03T03:42:51.472Z,79.23
2022-11-03T03:46:05.846Z,79.24
2022-11-03T03:49:14.891Z,78.94
2022-11-03T03:52:21.851Z,79.75
2022-11-03T03:55:40.397Z,79.63
2022-11-03T03:58:48.542Z,79.23
2022-11-03T04:01:54.282Z,79.15
2022-11-03T04:05:02.510Z,78.66
2022-11-03T04:08:08.755Z,78.72
2022-11-03T04:11:26.964Z,78.35
2022-11-03T04:14:44.859Z,77.73
2022-11-03T04:18:05.507Z,77.58
2022-11-03T04:21:29.706Z,77.22
2022-11-03T04:24:35.591Z,76.33
2022-11-03T04:27:41.439Z,75.28
2022-11-03T04:30:53.410Z,75.00
2022-11-03T04:34:04.902Z,74.92
2022-11-03T04:37:16.854Z,76.75
2022-11-03T04:40:22.547Z,76.20
2022-11-03T04:43:38.474Z,77.89
2022-11-03T04:46:44.357Z,77.54
2022-11-03T04:49:51.317Z,76.94
2022-11-03T04:53:02.294Z,75.83
2022-11-03T04:56:20.707Z,75.78
2022-11-03T04:59:26.308Z,75.80
2022-11-03T05:02:40.403Z,74.24
2022-11-03T05:05:46.118Z,76.13
2022-11-03T05:09:01.937Z,76.44
2022-11-03T05:12:08.870Z,75.90
2022-11-03T05:15:34.826Z,77.44
2022-11-03T05:18:46.411Z,77.73
2022-11-03T05:21:55.528Z,78.36
2022-11-03T05:25:28.816Z,78.05
2022-11-03T05:28:41.359Z,77.61
2022-11-03T05:31:51.783Z,78.01
2022-11-03T05:35:00.003Z,77.61
2022-11-03T05:38:18.149Z,77.45
2022-11-03T05:41:32.439Z,77.42
2022-11-03T05:44:42.897Z,76.97
2022-11-03T05:47:50.872Z,76.99
2022-11-03T05:51:00.350Z,77.66
2022-11-03T05:54:19.837Z,77.03
2022-11-03T05:57:32.856Z,76.70
2022-11-03T06:00:48.825Z,76.94
2022-11-03T06:03:54.907Z,78.35
2022-11-03T06:07:06.878Z,78.41
2022-11-03T06:10:42.472Z,78.85
2022-11-03T06:14:01.144Z,79.00
2022-11-03T06:17:10.407Z,78.83
2022-11-03T06:20:30.565Z,78.95
2022-11-03T06:23:39.291Z,79.29
2022-11-03T06:26:49.562Z,79.78
2022-11-03T06:30:19.477Z,79.86
2022-11-03T06:33:31.483Z,80.32
2022-11-03T06:36:49.514Z,81.16
2022-11-03T06:40:05.895Z,81.30
2022-11-03T06:43:29.019Z,80.53
2022-11-03T06:46:37.179Z,80.49
2022-11-03T06:49:43.474Z,80.87
2022-11-03T06:52:53.462Z,80.15
2022-11-03T06:55:59.151Z,79.97
2022-11-03T06:59:04.757Z,79.74
2022-11-03T07:02:58.283Z,78.72
2022-11-03T07:06:17.288Z,77.87
2022-11-03T07:09:28.170Z,77.33
2022-11-03T07:12:35.686Z,74.86
2022-11-03T07:15:41.971Z,73.06
2022-11-03T07:18:51.085Z,72.57
2022-11-03T07:22:01.357Z,70.03
2022-11-03T07:25:16.899Z,70.81
2022-11-03T07:28:22.865Z,71.24
2022-11-03T07:31:29.689Z,69.39
2022-11-03T07:34:37.981Z,66.29
2022-11-03T07:37:43.637Z,64.30
2022-11-03T07:40:49.936Z,63.73
2022-11-03T07:44:02.357Z,64.51
2022-11-03T07:47:16.665Z,64.50
2022-11-03T07:50:25.004Z,63.80
2022-11-03T07:53:43.593Z,61.69
2022-11-03T07:56:55.742Z,58.77
2022-11-03T08:00:10.398Z,59.77
2022-11-03T08:03:39.691Z,59.35
2022-11-03T08:06:48.408Z,61.34
2022-11-03T08:09:54.629Z,57.99
2022-11-03T08:13:00.141Z,55.95
2022-11-03T08:16:06.134Z,55.46
2022-11-03T08:19:12.467Z,52.98
2022-11-03T08:22:20.934Z,57.11
2022-11-03T08:25:26.457Z,58.96
2022-11-03T08:28:32.731Z,57.42
2022-11-03T08:31:38.401Z,56.10
2022-11-03T08:34:43.982Z,53.28
2022-11-03T08:37:52.351Z,52.44
2022-11-03T08:40:58.586Z,54.61
2022-11-03T08:44:04.327Z,51.17
2022-11-03T08:47:09.928Z,51.38
2022-11-03T08:50:15.646Z,53.00
2022-11-03T08:53:23.992Z,53.46
2022-11-03T08:56:30.379Z,50.74
2022-11-03T08:59:35.969Z,47.77
2022-11-03T09:02:41.686Z,46.61
2022-11-03T09:05:47.680Z,46.86
2022-11-03T09:12:21.784Z,49.70
2022-11-03T09:15:27.648Z,49.72
2022-11-03T09:18:34.245Z,48.33
2022-11-03T09:21:39.953Z,50.41
2022-11-03T09:24:48.162Z,47.63
2022-11-03T09:27:53.877Z,44.61
2022-11-03T09:30:59.505Z,43.46
2022-11-03T09:34:05.132Z,44.18
2022-11-03T09:37:10.943Z,43.73
2022-11-03T09:40:21.827Z,43.28
2022-11-03T09:43:27.483Z,45.39
2022-11-03T09:46:35.397Z,43.75
2022-11-03T09:49:41.068Z,41.54
2022-11-03T09:52:51.317Z,39.76
2022-11-03T09:56:01.011Z,40.11
2022-11-03T09:59:18.728Z,38.93
2022-11-03T10:02:30.479Z,38.01
2022-11-03T10:05:37.319Z,37.67
2022-11-03T10:08:46.215Z,36.93
2022-11-03T10:11:58.160Z,36.93
2022-11-03T10:15:03.987Z,36.06
2022-11-03T10:18:11.984Z,36.41
2022-11-03T10:21:22.169Z,37.42
2022-11-03T10:24:28.932Z,37.18
2022-11-03T10:27:37.239Z,38.39
2022-11-03T10:34:37.663Z,40.65
2022-11-03T10:37:43.352Z,39.64
2022-11-03T10:40:49.062Z,41.12
2022-11-03T10:44:21.130Z,39.08
2022-11-03T10:47:37.027Z,40.66
2022-11-03T10:50:44.977Z,40.76
2022-11-03T10:53:50.565Z,39.76
2022-11-03T10:56:56.542Z,39.13
2022-11-03T11:00:04.928Z,38.11
2022-11-03T11:03:14.968Z,38.15
2022-11-03T11:06:28.789Z,38.06
2022-11-03T11:09:34.472Z,38.94
2022-11-03T11:12:40.129Z,37.58
2022-11-03T11:15:51.481Z,36.12
2022-11-03T11:19:14.742Z,35.46
2022-11-03T11:22:26.267Z,35.40
2022-11-03T11:26:17.751Z,34.50
2022-11-03T11:29:44.810Z,36.00
2022-11-03T11:33:17.109Z,37.64
2022-11-03T11:36:27.397Z,37.90
2022-11-03T11:39:48.231Z,37.72
2022-11-03T11:43:30.076Z,36.67
2022-11-03T11:46:44.044Z,34.74
2022-11-03T11:49:53.027Z,34.09
2022-11-03T11:53:26.123Z,33.91
2022-11-03T11:56:34.975Z,35.65
2022-11-03T11:59:40.905Z,34.66
2022-11-03T12:02:51.119Z,34.77
2022-11-03T12:05:59.497Z,34.24
2022-11-03T12:09:10.655Z,34.82
2022-11-03T12:12:36.523Z,33.97
2022-11-03T12:16:00.647Z,36.04
2022-11-03T12:19:38.626Z,35.64
2022-11-03T12:22:46.853Z,34.15
2022-11-03T12:25:52.466Z,34.46
2022-11-03T12:28:58.776Z,34.48
2022-11-03T12:32:04.541Z,35.07
2022-11-03T12:35:13.789Z,34.68
2022-11-03T12:38:22.122Z,34.64
2022-11-03T12:41:27.831Z,34.72
2022-11-03T12:44:33.714Z,35.84
2022-11-03T12:47:39.406Z,36.90
2022-11-03T12:50:45.113Z,37.44
2022-11-03T12:53:56.113Z,37.91
2022-11-03T12:57:01.784Z,37.02
2022-11-03T13:00:12.737Z,37.29
2022-11-03T13:03:18.374Z,37.13
2022-11-03T13:06:24.578Z,35.39
2022-11-03T13:09:32.972Z,35.74
2022-11-03T13:12:41.626Z,37.39
2022-11-03T13:15:47.951Z,38.43
2022-11-03T13:18:53.637Z,40.02
2022-11-03T13:21:59.315Z,41.18
2022-11-03T13:25:10.397Z,41.01
2022-11-03T13:28:16.304Z,39.88
2022-11-03T13:31:22.027Z,39.22
2022-11-03T13:34:37.837Z,39.83
2022-11-03T13:37:44.270Z,40.45
2022-11-03T13:41:01.132Z,41.10
2022-11-03T13:44:25.585Z,41.95
2022-11-03T13:47:49.651Z,42.33
2022-11-03T13:50:57.123Z,43.36
2022-11-03T14:00:56.940Z,45.20
2022-11-03T14:07:28.911Z,45.98
2022-11-03T14:10:34.667Z,46.34
2022-11-03T14:13:40.278Z,46.53
2022-11-03T14:16:46.038Z,46.47
2022-11-03T14:19:52.807Z,46.13
2022-11-03T14:23:00.170Z,46.51
2022-11-03T14:26:23.621Z,46.69
2022-11-03T14:29:43.669Z,46.71
2022-11-03T14:32:49.356Z,46.51
2022-11-03T14:35:54.975Z,47.18
2022-11-03T14:39:02.058Z,47.45
2022-11-03T14:42:16.791Z,47.46
2022-11-03T14:45:25.412Z,47.38
2022-11-03T14:48:37.718Z,48.02
2022-11-03T14:51:47.197Z,47.52
2022-11-03T14:54:53.705Z,47.83
2022-11-03T14:57:59.353Z,47.97
2022-11-03T15:01:08.052Z,47.55
2022-11-03T15:04:13.715Z,47.80
2022-11-03T15:07:19.460Z,48.45
2022-11-03T15:10:25.214Z,47.99
2022-11-03T15:13:30.923Z,48.45
2022-11-03T15:16:39.259Z,48.49
2022-11-03T15:19:47.204Z,48.63
2022-11-03T15:26:19.163Z,49.48
2022-11-03T15:29:26.232Z,49.42
2022-11-03T15:32:36.544Z,49.74
2022-11-03T15:35:42.340Z,50.23
2022-11-03T15:38:47.966Z,50.70
2022-11-03T15:41:53.547Z,50.82
2022-11-03T15:44:59.145Z,51.83
2022-11-03T15:48:08.122Z,51.71
2022-11-03T15:51:15.024Z,52.61
2022-11-03T15:54:20.574Z,52.67
2022-11-03T15:57:26.272Z,53.05
2022-11-03T16:00:32.433Z,53.29
2022-11-03T16:03:40.648Z,53.38
2022-11-03T16:07:06.835Z,53.73
2022-11-03T16:10:12.534Z,54.01
2022-11-03T16:13:18.162Z,54.82
2022-11-03T16:16:23.759Z,54.89
2022-11-03T16:19:31.906Z,55.34
2022-11-03T16:22:37.642Z,55.74
2022-11-03T16:25:43.640Z,55.96
2022-11-03T16:28:49.263Z,56.20
2022-11-03T16:31:54.884Z,56.73
2022-11-03T16:35:03.146Z,56.52
2022-11-03T16:38:10.472Z,56.83
2022-11-03T16:41:16.359Z,56.96
2022-11-03T16:44:22.388Z,57.50
2022-11-03T16:47:28.257Z,57.57
2022-11-03T16:50:40.092Z,58.17
2022-11-03T16:53:48.767Z,57.99
2022-11-03T16:56:55.027Z,58.23
2022-11-03T17:00:00.937Z,58.50
2022-11-03T17:03:09.407Z,58.46
2022-11-03T17:06:17.796Z,58.87
2022-11-03T17:09:23.649Z,59.01
2022-11-03T17:12:29.209Z,58.87
2022-11-03T17:15:34.834Z,58.88
2022-11-03T17:18:40.513Z,59.49
2022-11-03T17:21:48.736Z,59.34
2022-11-03T17:24:54.686Z,59.21
2022-11-03T17:28:06.162Z,59.60
2022-11-03T17:31:12.215Z,60.06
2022-11-03T17:34:26.858Z,60.35
2022-11-03T17:37:37.737Z,60.06
2022-11-03T17:40:45.457Z,61.19
2022-11-03T17:43:51.146Z,61.71
2022-11-03T17:46:59.925Z,61.30
2022-11-03T17:50:05.894Z,61.56
2022-11-03T17:53:24.944Z,60.44
2022-11-03T17:56:31.401Z,60.09
2022-11-03T17:59:38.140Z,59.92
2022-11-03T18:02:44.602Z,59.58
2022-11-03T18:05:50.348Z,59.20
2022-11-03T18:08:59.532Z,59.39
2022-11-03T18:12:17.640Z,59.62
2022-11-03T18:15:28.595Z,60.12
2022-11-03T18:18:39.274Z,60.51
2022-11-03T18:21:45.767Z,60.38
2022-11-03T18:24:55.679Z,59.99
2022-11-03T18:28:01.295Z,60.20
2022-11-03T18:31:11.553Z,60.05
2022-11-03T18:34:23.907Z,60.12
2022-11-03T18:37:29.590Z,60.47
2022-11-03T18:40:40.073Z,60.71
2022-11-03T18:43:45.999Z,60.30
2022-11-03T18:46:52.975Z,60.43
2022-11-03T18:49:58.570Z,61.08
2022-11-03T18:53:04.956Z,60.97
2022-11-03T18:56:23.060Z,60.93
2022-11-03T18:59:35.351Z,60.84
2022-11-03T19:02:41.145Z,61.16
2022-11-03T19:05:48.424Z,60.90
2022-11-03T19:09:02.392Z,60.85
2022-11-03T19:12:17.218Z,61.33
2022-11-03T19:15:27.798Z,60.60
2022-11-03T19:18:39.069Z,61.07
2022-11-03T19:21:44.722Z,61.34
2022-11-03T19:24:51.085Z,61.63
2022-11-03T19:27:59.591Z,61.44
2022-11-03T19:31:05.802Z,61.46
2022-11-03T19:34:20.723Z,61.52
2022-11-03T19:37:28.774Z,62.29
2022-11-03T19:40:38.319Z,61.89
2022-11-03T19:43:44.210Z,62.00
2022-11-03T19:46:56.627Z,62.10
2022-11-03T19:50:04.411Z,62.17
2022-11-03T19:53:11.086Z,62.48
2022-11-03T19:56:19.431Z,62.55
2022-11-03T19:59:28.817Z,62.68
2022-11-03T20:02:34.641Z,62.68
2022-11-03T20:05:46.560Z,61.97
2022-11-03T20:08:55.110Z,62.19
2022-11-03T20:12:07.772Z,62.16
2022-11-03T20:15:22.672Z,62.55
2022-11-03T20:18:28.451Z,62.57
2022-11-03T20:21:35.661Z,62.51
2022-11-03T20:24:41.665Z,62.43
2022-11-03T20:27:47.447Z,62.88
2022-11-03T20:30:56.802Z,62.83
2022-11-03T20:34:02.455Z,63.08
2022-11-03T20:37:19.071Z,62.71
2022-11-03T20:40:28.784Z,63.29
2022-11-03T20:43:40.631Z,63.23
2022-11-03T20:46:49.507Z,63.42
2022-11-03T20:49:55.135Z,63.79
2022-11-03T20:53:03.118Z,63.42
2022-11-03T20:56:15.502Z,63.49
2022-11-03T20:59:24.920Z,63.79
2022-11-03T21:02:33.192Z,64.11
2022-11-03T21:05:39.274Z,64.92
2022-11-03T21:08:45.276Z,64.99
2022-11-03T21:11:54.453Z,65.33
2022-11-03T21:15:12.502Z,64.90
2022-11-03T21:18:33.110Z,64.97
2022-11-03T21:21:38.922Z,65.10
2022-11-03T21:24:45.170Z,65.54
2022-11-03T21:27:51.145Z,65.05
2022-11-03T21:30:59.006Z,65.72
2022-11-03T21:34:07.245Z,65.15
2022-11-03T21:37:18.009Z,65.72
2022-11-03T21:40:23.638Z,65.40
2022-11-03T21:43:42.184Z,65.17
2022-11-03T21:46:49.318Z,64.49
2022-11-03T21:49:55.070Z,64.79
2022-11-03T21:53:00.968Z,65.18
2022-11-03T21:56:10.432Z,64.84
2022-11-03T21:59:18.603Z,65.29
2022-11-03T22:02:24.367Z,65.79
2022-11-03T22:05:32.655Z,65.11
2022-11-03T22:08:39.150Z,65.42
2022-11-03T22:11:44.835Z,65.27
2022-11-03T22:15:02.877Z,64.70
2022-11-03T22:18:09.856Z,65.34
2022-11-03T22:21:30.622Z,65.78
2022-11-03T22:24:48.673Z,65.88
2022-11-03T22:27:54.418Z,66.41
2022-11-03T22:31:12.570Z,65.95
2022-11-03T22:34:30.585Z,66.01
2022-11-03T22:40:58.711Z,66.33
2022-11-03T22:44:16.862Z,66.76
2022-11-03T22:47:22.513Z,66.76
2022-11-03T22:50:31.054Z,66.41
2022-11-03T22:53:54.417Z,66.35
2022-11-03T22:57:00.262Z,66.44
2022-11-03T23:00:07.986Z,66.39
2022-11-03T23:03:17.506Z,67.21
2022-11-03T23:06:26.167Z,66.99
2022-11-03T23:09:34.658Z,67.36
2022-11-03T23:12:40.364Z,67.40
2022-11-03T23:15:46.510Z,67.31
2022-11-03T23:19:04.829Z,67.94
2022-11-03T23:22:10.631Z,67.37
2022-11-03T23:25:16.651Z,66.88
2022-11-03T23:28:22.453Z,66.54
2022-11-03T23:31:28.326Z,65.71
2022-11-03T23:34:35.324Z,65.31
2022-11-03T23:37:41.470Z,65.23
2022-11-03T23:40:49.883Z,65.36
2022-11-03T23:43:56.899Z,65.51
2022-11-03T23:47:21.967Z,65.26
2022-11-03T23:50:37.696Z,64.93
2022-11-03T23:53:46.348Z,64.96
2022-11-03T23:57:13.309Z,64.99
